Time;durP1;ratioP1;P1;durP2;ratioP2;P2;SDS_P1;SDS_P2;PMS_P1;PMS_P2;Temp;Humidity;BMP_temperature;BMP_pressure;BME280_temperature;BME280_humidity;BME280_pressure;Samples;Min_cycle;Max_cycle;Signal;HPM_P1;HPM_P2
2023/09/02 00:00:03;;;;;;;17.90;10.68;;;;;;;;;;5076955;28;20028;-75
2023/09/02 00:02:29;;;;;;;18.70;10.07;;;;;;;;;;5107909;28;20400;-75
2023/09/02 00:04:55;;;;;;;22.08;10.90;;;;;;;;;;5104395;28;20027;-75
2023/09/02 00:07:22;;;;;;;20.00;9.60;;;;;;;;;;5082895;28;21189;-75
2023/09/02 00:09:48;;;;;;;23.23;10.65;;;;;;;;;;5087496;28;20067;-74
2023/09/02 00:12:14;;;;;;;27.70;11.38;;;;;;;;;;5106819;28;20047;-75
2023/09/02 00:14:41;;;;;;;22.20;11.15;;;;;;;;;;5085097;28;20061;-74
2023/09/02 00:17:07;;;;;;;25.45;11.30;;;;;;;;;;5084205;28;20059;-75
2023/09/02 00:19:33;;;;;;;24.73;10.85;;;;;;;;;;5104481;28;20092;-75
2023/09/02 00:22:00;;;;;;;25.70;11.25;;;;;;;;;;5083207;28;20095;-75
2023/09/02 00:24:26;;;;;;;24.23;11.63;;;;;;;;;;5102700;28;20451;-75
2023/09/02 00:26:52;;;;;;;24.08;10.75;;;;;;;;;;5090209;28;20685;-75
2023/09/02 00:29:18;;;;;;;23.63;11.43;;;;;;;;;;5103728;28;20436;-75
2023/09/02 00:31:45;;;;;;;19.50;10.55;;;;;;;;;;5102902;28;20103;-75
2023/09/02 00:34:11;;;;;;;17.75;9.48;;;;;;;;;;5090370;28;20410;-76
2023/09/02 00:36:37;;;;;;;25.63;10.73;;;;;;;;;;5100468;28;20023;-77
2023/09/02 00:39:03;;;;;;;19.98;9.98;;;;;;;;;;5101944;28;20019;-75
2023/09/02 00:41:36;;;;;;;22.58;11.25;;;;;;;;;;5099222;28;20111;-75
2023/09/02 00:44:02;;;;;;;26.52;10.77;;;;;;;;;;5086490;28;20058;-75
2023/09/02 00:46:28;;;;;;;20.73;10.48;;;;;;;;;;5092094;28;20089;-75
2023/09/02 00:48:55;;;;;;;25.13;11.15;;;;;;;;;;5084727;28;20040;-75
2023/09/02 00:51:21;;;;;;;31.05;12.48;;;;;;;;;;5100796;28;20191;-75
2023/09/02 00:53:47;;;;;;;37.38;12.73;;;;;;;;;;5104126;28;20034;-75
2023/09/02 00:56:14;;;;;;;64.18;12.65;;;;;;;;;;5104238;28;20036;-75
2023/09/02 00:58:41;;;;;;;30.55;13.30;;;;;;;;;;5100446;28;20027;-75
2023/09/02 01:01:07;;;;;;;28.63;11.68;;;;;;;;;;5083841;28;20046;-74
2023/09/02 01:03:35;;;;;;;36.88;13.32;;;;;;;;;;5108632;27;20028;-74
2023/09/02 01:06:03;;;;;;;41.75;13.40;;;;;;;;;;5086928;28;20032;-75
2023/09/02 01:08:30;;;;;;;34.83;13.65;;;;;;;;;;5102143;28;20016;-75
2023/09/02 01:10:58;;;;;;;34.15;12.80;;;;;;;;;;5104604;28;20550;-75
2023/09/02 01:13:25;;;;;;;36.30;13.13;;;;;;;;;;5100199;28;20023;-74
2023/09/02 01:15:54;;;;;;;40.42;13.95;;;;;;;;;;5097200;28;20130;-76
2023/09/02 01:18:21;;;;;;;30.50;12.15;;;;;;;;;;5101926;28;20024;-76
2023/09/02 01:20:56;;;;;;;36.20;13.63;;;;;;;;;;5102917;28;20123;-75
2023/09/02 01:23:22;;;;;;;;;;;;;;;;;;5099568;28;20537;-75
2023/09/02 01:25:51;;;;;;;33.75;12.70;;;;;;;;;;5097298;28;19916;-75
2023/09/02 01:28:25;;;;;;;35.08;12.85;;;;;;;;;;5103991;28;20478;-75
2023/09/02 01:30:54;;;;;;;35.13;14.20;;;;;;;;;;5097219;28;20539;-75
2023/09/02 01:33:21;;;;;;;33.83;14.13;;;;;;;;;;5086779;28;20028;-75
2023/09/02 01:35:49;;;;;;;35.05;14.85;;;;;;;;;;5101560;28;20031;-75
2023/09/02 01:38:15;;;;;;;35.28;14.35;;;;;;;;;;5096549;28;20107;-75
2023/09/02 01:40:44;;;;;;;35.63;15.35;;;;;;;;;;5102473;28;20067;-76
2023/09/02 01:43:11;;;;;;;37.78;14.38;;;;;;;;;;5082881;28;20610;-74
2023/09/02 01:45:38;;;;;;;35.88;14.50;;;;;;;;;;5099029;28;20028;-76
2023/09/02 01:48:04;;;;;;;34.50;13.80;;;;;;;;;;5087244;28;20020;-75
2023/09/02 01:50:32;;;;;;;32.42;13.77;;;;;;;;;;5098470;28;20038;-74
2023/09/02 01:52:58;;;;;;;36.88;14.00;;;;;;;;;;5099750;28;20031;-75
2023/09/02 01:55:25;;;;;;;33.95;14.13;;;;;;;;;;5102854;28;20693;-75
2023/09/02 01:57:51;;;;;;;32.03;13.15;;;;;;;;;;5081828;28;20045;-75
2023/09/02 02:00:17;;;;;;;31.10;14.40;;;;;;;;;;5100650;28;20636;-75
2023/09/02 02:02:47;;;;;;;31.20;14.63;;;;;;;;;;5102565;28;20038;-75
2023/09/02 02:05:16;;;;;;;36.35;12.93;;;;;;;;;;5103351;28;20076;-74
2023/09/02 02:07:50;;;;;;;34.53;13.77;;;;;;;;;;5104686;28;20027;-75
2023/09/02 02:10:17;;;;;;;38.47;14.73;;;;;;;;;;5082375;28;20579;-75
2023/09/02 02:12:43;;;;;;;30.58;13.77;;;;;;;;;;5100615;28;20491;-75
2023/09/02 02:15:11;;;;;;;36.85;14.90;;;;;;;;;;5102203;28;20114;-75
2023/09/02 02:17:41;;;;;;;32.95;14.63;;;;;;;;;;5104445;28;20503;-75
2023/09/02 02:20:10;;;;;;;29.08;14.70;;;;;;;;;;5088653;28;20031;-75
2023/09/02 02:22:36;;;;;;;33.45;14.70;;;;;;;;;;5102826;28;20464;-75
2023/09/02 02:25:03;;;;;;;34.72;14.93;;;;;;;;;;5100267;28;20487;-74
2023/09/02 02:27:29;;;;;;;41.63;16.33;;;;;;;;;;5088338;28;20474;-75
2023/09/02 02:29:56;;;;;;;38.25;15.93;;;;;;;;;;5097304;28;20032;-75
2023/09/02 02:32:22;;;;;;;33.38;15.02;;;;;;;;;;5106233;28;20028;-75
2023/09/02 02:34:48;;;;;;;31.48;16.63;;;;;;;;;;5096432;28;20031;-75
2023/09/02 02:37:15;;;;;;;31.33;15.85;;;;;;;;;;5086161;28;20030;-75
2023/09/02 02:39:41;;;;;;;30.58;15.57;;;;;;;;;;5090262;28;20031;-75
2023/09/02 02:42:07;;;;;;;30.20;15.45;;;;;;;;;;5104190;28;20027;-75
2023/09/02 02:44:35;;;;;;;34.90;17.80;;;;;;;;;;5101729;28;20034;-75
2023/09/02 02:47:01;;;;;;;37.75;18.73;;;;;;;;;;5104091;28;20505;-75
2023/09/02 02:49:28;;;;;;;30.38;16.02;;;;;;;;;;5100150;28;20032;-75
2023/09/02 02:51:56;;;;;;;26.92;14.15;;;;;;;;;;5104139;28;20028;-74
2023/09/02 02:54:22;;;;;;;29.30;14.02;;;;;;;;;;5103665;28;20058;-75
2023/09/02 02:56:48;;;;;;;30.30;15.82;;;;;;;;;;5082890;28;20118;-75
2023/09/02 02:59:14;;;;;;;30.48;16.10;;;;;;;;;;5103943;28;20069;-74
2023/09/02 03:01:40;;;;;;;30.38;15.73;;;;;;;;;;5099199;28;20055;-74
2023/09/02 03:04:08;;;;;;;33.88;15.25;;;;;;;;;;5099977;28;20108;-74
2023/09/02 03:06:35;;;;;;;29.23;14.73;;;;;;;;;;5103882;28;20031;-74
2023/09/02 03:09:02;;;;;;;34.50;17.08;;;;;;;;;;5108426;28;20023;-74
2023/09/02 03:11:28;;;;;;;34.80;16.67;;;;;;;;;;5102781;28;20023;-74
2023/09/02 03:13:56;;;;;;;30.10;16.50;;;;;;;;;;5097624;28;20111;-74
2023/09/02 03:16:22;;;;;;;32.42;15.43;;;;;;;;;;5082727;28;20452;-75
2023/09/02 03:18:48;;;;;;;31.83;15.77;;;;;;;;;;5107167;28;20051;-75
2023/09/02 03:21:14;;;;;;;33.60;16.50;;;;;;;;;;5103115;28;20503;-75
2023/09/02 03:23:46;;;;;;;33.50;16.27;;;;;;;;;;5106576;28;20491;-74
2023/09/02 03:26:17;;;;;;;33.83;17.77;;;;;;;;;;5103557;28;20028;-74
2023/09/02 03:28:44;;;;;;;34.60;16.25;;;;;;;;;;5105652;28;20035;-75
2023/09/02 03:31:10;;;;;;;31.55;15.95;;;;;;;;;;5091279;28;20097;-75
2023/09/02 03:33:37;;;;;;;35.05;16.73;;;;;;;;;;5102563;28;20029;-74
2023/09/02 03:36:03;;;;;;;34.63;15.32;;;;;;;;;;5104921;28;20497;-75
2023/09/02 03:38:30;;;;;;;32.25;17.00;;;;;;;;;;5104858;28;20030;-75
2023/09/02 03:40:56;;;;;;;40.08;17.83;;;;;;;;;;5087590;28;20030;-76
2023/09/02 03:43:23;;;;;;;36.22;17.77;;;;;;;;;;5092506;28;20024;-76
2023/09/02 03:45:49;;;;;;;40.60;17.00;;;;;;;;;;5101898;28;20031;-75
2023/09/02 03:48:19;;;;;;;39.53;17.85;;;;;;;;;;5100518;28;20023;-75
2023/09/02 03:51:16;;;;;;;36.35;17.45;;;;;;;;;;5106637;28;20534;-75
2023/09/02 03:53:45;;;;;;;34.65;18.15;;;;;;;;;;5103139;28;20039;-75
2023/09/02 03:56:11;;;;;;;38.90;17.98;;;;;;;;;;5106383;28;20114;-75
2023/09/02 03:58:37;;;;;;;34.95;17.90;;;;;;;;;;5087902;28;20470;-75
2023/09/02 04:01:04;;;;;;;34.38;16.70;;;;;;;;;;5104660;28;20479;-75
2023/09/02 04:03:35;;;;;;;38.28;18.67;;;;;;;;;;5102682;28;20062;-75
2023/09/02 04:06:01;;;;;;;34.97;18.25;;;;;;;;;;5098736;28;20344;-75
2023/09/02 04:08:27;;;;;;;35.22;17.10;;;;;;;;;;5103091;28;20530;-74
2023/09/02 04:10:54;;;;;;;34.63;17.75;;;;;;;;;;5105064;28;20039;-74
2023/09/02 04:13:24;;;;;;;36.03;18.70;;;;;;;;;;5105588;28;20019;-75
2023/09/02 04:15:50;;;;;;;36.80;19.08;;;;;;;;;;5103632;28;20154;-75
2023/09/02 04:18:16;;;;;;;36.92;17.77;;;;;;;;;;5096366;28;20519;-75
2023/09/02 04:20:43;;;;;;;32.03;16.00;;;;;;;;;;5080919;28;20403;-75
2023/09/02 04:23:09;;;;;;;30.48;16.23;;;;;;;;;;5102543;28;20024;-75
2023/09/02 04:25:44;;;;;;;28.50;16.08;;;;;;;;;;5102065;28;20035;-75
2023/09/02 04:28:10;;;;;;;30.65;17.73;;;;;;;;;;5103863;28;20036;-75
2023/09/02 04:30:36;;;;;;;36.45;16.33;;;;;;;;;;5101471;28;20031;-75
2023/09/02 04:33:05;;;;;;;33.83;15.93;;;;;;;;;;5106762;28;20027;-75
2023/09/02 04:35:38;;;;;;;27.77;16.38;;;;;;;;;;5096487;28;20463;-76
2023/09/02 04:38:05;;;;;;;26.45;15.95;;;;;;;;;;5083914;28;20036;-75
2023/09/02 04:40:31;;;;;;;31.08;15.52;;;;;;;;;;5103124;28;20043;-75
2023/09/02 04:42:57;;;;;;;31.00;17.63;;;;;;;;;;5102359;28;20422;-76
2023/09/02 04:45:23;;;;;;;27.77;15.57;;;;;;;;;;5104525;28;20055;-76
2023/09/02 04:47:49;;;;;;;31.75;16.40;;;;;;;;;;5103322;28;20023;-76
2023/09/02 04:50:16;;;;;;;26.85;14.80;;;;;;;;;;5103475;28;20100;-74
2023/09/02 04:52:44;;;;;;;29.50;15.52;;;;;;;;;;5104887;28;20024;-76
2023/09/02 04:55:10;;;;;;;33.78;17.52;;;;;;;;;;5102948;28;20391;-74
2023/09/02 04:57:37;;;;;;;29.05;17.17;;;;;;;;;;5102300;28;20024;-74
2023/09/02 05:00:04;;;;;;;28.38;15.60;;;;;;;;;;5103471;28;20088;-75
2023/09/02 05:02:30;;;;;;;27.20;15.70;;;;;;;;;;5100609;28;20551;-75
2023/09/02 05:04:56;;;;;;;28.73;15.68;;;;;;;;;;5105830;28;20039;-76
2023/09/02 05:07:22;;;;;;;29.70;15.30;;;;;;;;;;5102296;28;20415;-75
2023/09/02 05:09:50;;;;;;;28.83;16.08;;;;;;;;;;5107371;28;20028;-75
2023/09/02 05:12:16;;;;;;;25.70;14.65;;;;;;;;;;5103871;28;20574;-75
2023/09/02 05:14:42;;;;;;;29.55;15.93;;;;;;;;;;5099676;28;20545;-75
2023/09/02 05:17:08;;;;;;;27.77;16.60;;;;;;;;;;5099082;28;20510;-75
2023/09/02 05:19:34;;;;;;;28.95;16.60;;;;;;;;;;5104393;28;20089;-75
2023/09/02 05:22:00;;;;;;;27.77;15.38;;;;;;;;;;5076103;28;20028;-74
2023/09/02 05:24:27;;;;;;;28.55;16.05;;;;;;;;;;5099521;28;20032;-76
2023/09/02 05:26:53;;;;;;;30.05;15.80;;;;;;;;;;5085696;28;20035;-75
2023/09/02 05:29:19;;;;;;;30.25;16.75;;;;;;;;;;5082016;28;20585;-75
2023/09/02 05:31:48;;;;;;;32.35;17.35;;;;;;;;;;5103262;28;20501;-75
2023/09/02 05:34:14;;;;;;;31.23;15.15;;;;;;;;;;5097096;28;20589;-75
2023/09/02 05:36:40;;;;;;;31.65;16.50;;;;;;;;;;5092608;28;20030;-75
2023/09/02 05:39:07;;;;;;;28.50;15.38;;;;;;;;;;5079003;28;20371;-75
2023/09/02 05:41:34;;;;;;;28.20;14.88;;;;;;;;;;5102903;28;20051;-75
2023/09/02 05:44:00;;;;;;;22.83;13.35;;;;;;;;;;5093346;28;20031;-75
2023/09/02 05:46:26;;;;;;;24.10;12.60;;;;;;;;;;5095548;28;20024;-75
2023/09/02 05:48:52;;;;;;;25.77;15.30;;;;;;;;;;5084509;28;20396;-74
2023/09/02 05:51:18;;;;;;;33.22;16.58;;;;;;;;;;5085849;28;20032;-75
2023/09/02 05:53:46;;;;;;;31.10;14.70;;;;;;;;;;5109288;28;20024;-75
2023/09/02 05:56:15;;;;;;;31.00;14.35;;;;;;;;;;5103137;28;20248;-74
2023/09/02 05:58:41;;;;;;;29.73;15.73;;;;;;;;;;5100719;28;20024;-74
2023/09/02 06:01:07;;;;;;;30.95;14.80;;;;;;;;;;5102026;28;20022;-74
2023/09/02 06:03:33;;;;;;;32.65;14.70;;;;;;;;;;5104754;28;20108;-74
2023/09/02 06:06:00;;;;;;;35.30;17.02;;;;;;;;;;5106466;28;20031;-75
2023/09/02 06:08:26;;;;;;;36.60;15.02;;;;;;;;;;5081651;28;20028;-74
2023/09/02 06:10:59;;;;;;;35.70;18.33;;;;;;;;;;5108700;28;20046;-75
2023/09/02 06:13:27;;;;;;;29.33;13.88;;;;;;;;;;5105351;27;20020;-75
2023/09/02 06:15:57;;;;;;;25.65;13.68;;;;;;;;;;5105949;28;20055;-75
2023/09/02 06:18:25;;;;;;;29.85;13.75;;;;;;;;;;5099001;28;20098;-75
2023/09/02 06:21:08;;;;;;;30.05;13.93;;;;;;;;;;5105631;28;20024;-75
2023/09/02 06:23:34;;;;;;;36.17;16.05;;;;;;;;;;5102219;28;20016;-76
2023/09/02 06:26:01;;;;;;;32.90;15.23;;;;;;;;;;5083180;28;20115;-75
2023/09/02 06:28:28;;;;;;;33.33;14.43;;;;;;;;;;5086695;28;20493;-77
2023/09/02 06:30:55;;;;;;;33.60;14.77;;;;;;;;;;5102802;28;20035;-75
2023/09/02 06:33:22;;;;;;;32.88;12.98;;;;;;;;;;5096266;28;20024;-75
2023/09/02 06:35:51;;;;;;;33.72;13.23;;;;;;;;;;5102295;28;20517;-75
2023/09/02 06:38:17;;;;;;;29.67;13.85;;;;;;;;;;5104968;28;20112;-75
2023/09/02 06:40:44;;;;;;;32.50;13.75;;;;;;;;;;5105154;27;20051;-75
2023/09/02 06:43:11;;;;;;;31.67;14.88;;;;;;;;;;5088124;28;20479;-75
2023/09/02 06:45:38;;;;;;;27.63;12.95;;;;;;;;;;5106457;28;20016;-76
2023/09/02 06:48:04;;;;;;;31.55;12.63;;;;;;;;;;5105262;28;20067;-75
2023/09/02 06:50:30;;;;;;;22.58;10.77;;;;;;;;;;5106922;27;20024;-75
2023/09/02 06:52:56;;;;;;;18.55;9.15;;;;;;;;;;5100837;28;20475;-75
2023/09/02 06:55:22;;;;;;;18.95;10.02;;;;;;;;;;5086695;28;20536;-76
2023/09/02 06:57:49;;;;;;;19.95;10.15;;;;;;;;;;5103060;28;20059;-75
2023/09/02 07:00:15;;;;;;;20.27;9.85;;;;;;;;;;5105099;27;20395;-75
2023/09/02 07:02:42;;;;;;;22.65;10.55;;;;;;;;;;5106425;28;20028;-75
2023/09/02 07:05:08;;;;;;;18.42;8.43;;;;;;;;;;5105134;28;20376;-75
2023/09/02 07:07:41;;;;;;;17.95;9.75;;;;;;;;;;5108244;28;20031;-76
2023/09/02 07:10:11;;;;;;;21.75;9.90;;;;;;;;;;5111011;28;20031;-75
2023/09/02 07:12:37;;;;;;;16.27;7.97;;;;;;;;;;5090932;28;20039;-75
2023/09/02 07:15:03;;;;;;;15.32;8.27;;;;;;;;;;5085564;28;20428;-75
2023/09/02 07:17:29;;;;;;;18.27;9.25;;;;;;;;;;5088218;28;20028;-74
2023/09/02 07:19:56;;;;;;;17.23;9.45;;;;;;;;;;5103756;28;20040;-75
2023/09/02 07:22:22;;;;;;;16.83;9.07;;;;;;;;;;5102512;27;20074;-75
2023/09/02 07:24:48;;;;;;;22.50;9.75;;;;;;;;;;5094777;28;20118;-75
2023/09/02 07:27:14;;;;;;;19.10;8.52;;;;;;;;;;5107155;28;20027;-74
2023/09/02 07:29:40;;;;;;;20.00;9.57;;;;;;;;;;5103575;28;20414;-75
2023/09/02 07:32:07;;;;;;;20.48;10.85;;;;;;;;;;5107055;27;20088;-75
2023/09/02 07:34:37;;;;;;;24.67;10.68;;;;;;;;;;5100500;27;20027;-74
2023/09/02 07:37:03;;;;;;;22.33;12.38;;;;;;;;;;5102442;28;20467;-75
2023/09/02 07:39:29;;;;;;;23.40;11.88;;;;;;;;;;5102785;28;20027;-75
2023/09/02 07:41:55;;;;;;;18.70;9.95;;;;;;;;;;5100736;28;20158;-74
2023/09/02 07:44:22;;;;;;;26.40;11.52;;;;;;;;;;5106057;28;20068;-75
2023/09/02 07:46:48;;;;;;;25.65;12.10;;;;;;;;;;5102998;28;20036;-75
2023/09/02 07:49:14;;;;;;;24.23;11.68;;;;;;;;;;5104595;28;20055;-74
2023/09/02 07:51:41;;;;;;;21.85;11.35;;;;;;;;;;5102150;28;20027;-75
2023/09/02 07:54:08;;;;;;;22.65;12.38;;;;;;;;;;5084338;28;20052;-75
2023/09/02 07:56:34;;;;;;;23.42;11.95;;;;;;;;;;5097703;28;20038;-75
2023/09/02 07:59:00;;;;;;;23.17;10.88;;;;;;;;;;5103630;28;20177;-75
2023/09/02 08:01:29;;;;;;;27.38;11.48;;;;;;;;;;5105777;28;20468;-74
2023/09/02 08:03:55;;;;;;;21.85;11.95;;;;;;;;;;5074971;28;20118;-73
2023/09/02 08:06:22;;;;;;;22.85;11.52;;;;;;;;;;5094678;27;20028;-74
2023/09/02 08:08:48;;;;;;;22.23;10.63;;;;;;;;;;5103448;28;20039;-74
2023/09/02 08:11:17;;;;;;;21.85;10.82;;;;;;;;;;5093473;28;20471;-74
2023/09/02 08:13:44;;;;;;;23.90;11.93;;;;;;;;;;5102294;28;20020;-74
2023/09/02 08:16:10;;;;;;;22.63;12.68;;;;;;;;;;5104551;28;20440;-74
2023/09/02 08:18:36;;;;;;;22.73;12.07;;;;;;;;;;5082652;28;20280;-74
2023/09/02 08:21:08;;;;;;;24.38;10.20;;;;;;;;;;5105108;28;20055;-74
2023/09/02 08:23:34;;;;;;;19.70;11.18;;;;;;;;;;5081650;28;20118;-74
2023/09/02 08:26:06;;;;;;;22.23;10.93;;;;;;;;;;5104737;28;20031;-74
2023/09/02 08:28:35;;;;;;;19.67;9.57;;;;;;;;;;5106831;28;20020;-74
2023/09/02 08:31:01;;;;;;;22.42;12.02;;;;;;;;;;5100016;28;20088;-74
2023/09/02 08:33:27;;;;;;;19.95;10.65;;;;;;;;;;5103736;28;20160;-75
2023/09/02 08:35:53;;;;;;;22.80;10.93;;;;;;;;;;5104036;28;20061;-75
2023/09/02 08:38:20;;;;;;;15.90;10.50;;;;;;;;;;5102589;28;20019;-74
2023/09/02 08:40:47;;;;;;;18.95;11.60;;;;;;;;;;5087250;28;20551;-75
2023/09/02 08:43:14;;;;;;;19.35;10.57;;;;;;;;;;5106019;28;20035;-70
2023/09/02 08:45:42;;;;;;;17.85;9.63;;;;;;;;;;5101386;28;20031;-70
2023/09/02 08:48:09;;;;;;;19.15;9.90;;;;;;;;;;5102880;28;20110;-70
2023/09/02 08:50:36;;;;;;;18.02;9.15;;;;;;;;;;5105664;28;20079;-70
2023/09/02 08:53:02;;;;;;;18.52;9.52;;;;;;;;;;5090623;28;20492;-70
2023/09/02 08:55:32;;;;;;;16.55;10.85;;;;;;;;;;5089022;28;20028;-71
2023/09/02 08:58:01;;;;;;;18.48;9.90;;;;;;;;;;5091350;28;20043;-71
2023/09/02 09:00:27;;;;;;;17.42;10.43;;;;;;;;;;5086986;28;20031;-71
2023/09/02 09:02:54;;;;;;;18.42;10.23;;;;;;;;;;5076501;28;20563;-70
2023/09/02 09:05:22;;;;;;;15.93;9.85;;;;;;;;;;5102114;28;20513;-70
2023/09/02 09:07:50;;;;;;;15.38;8.98;;;;;;;;;;5099142;28;20043;-70
2023/09/02 09:10:18;;;;;;;16.73;9.88;;;;;;;;;;5079592;28;20016;-73
2023/09/02 09:12:48;;;;;;;16.80;10.60;;;;;;;;;;5098631;28;20027;-66
2023/09/02 09:15:16;;;;;;;16.90;10.25;;;;;;;;;;5102165;28;20410;-66
2023/09/02 09:17:46;;;;;;;18.27;9.80;;;;;;;;;;5098955;28;20502;-67
2023/09/02 09:20:21;;;;;;;17.05;10.73;;;;;;;;;;5083946;28;20046;-71
2023/09/02 09:22:50;;;;;;;16.60;9.48;;;;;;;;;;5098414;28;20061;-69
2023/09/02 09:25:22;;;;;;;17.73;9.73;;;;;;;;;;5105511;28;20024;-71
2023/09/02 09:27:49;;;;;;;14.13;9.35;;;;;;;;;;5107945;28;20030;-68
2023/09/02 09:30:28;;;;;;;16.10;8.90;;;;;;;;;;5102519;28;20542;-68
2023/09/02 09:33:01;;;;;;;15.18;8.48;;;;;;;;;;5100751;28;20032;-70
2023/09/02 09:35:27;;;;;;;12.73;8.90;;;;;;;;;;5082166;28;20036;-68
2023/09/02 09:38:04;;;;;;;13.70;8.50;;;;;;;;;;5103579;28;21692;-67
2023/09/02 09:40:35;;;;;;;12.20;8.13;;;;;;;;;;5092498;27;20031;-70
2023/09/02 09:43:02;;;;;;;11.50;7.97;;;;;;;;;;5102574;28;20043;-70
2023/09/02 09:45:30;;;;;;;13.23;7.90;;;;;;;;;;5087902;28;20020;-70
2023/09/02 09:48:01;;;;;;;11.05;7.10;;;;;;;;;;5100489;28;20035;-70
2023/09/02 09:50:30;;;;;;;16.00;9.00;;;;;;;;;;5107404;28;20024;-71
2023/09/02 09:53:04;;;;;;;12.43;7.43;;;;;;;;;;5100596;28;20055;-70
2023/09/02 09:55:31;;;;;;;11.87;8.67;;;;;;;;;;5103568;28;20479;-69
2023/09/02 09:57:59;;;;;;;11.75;7.40;;;;;;;;;;5103616;28;20309;-70
2023/09/02 10:00:26;;;;;;;15.00;6.63;;;;;;;;;;5102761;28;20035;-70
2023/09/02 10:02:56;;;;;;;8.93;6.60;;;;;;;;;;5097240;28;20031;-70
2023/09/02 10:05:29;;;;;;;9.70;7.05;;;;;;;;;;5105398;28;20046;-72
2023/09/02 10:08:05;;;;;;;10.80;6.93;;;;;;;;;;5102565;28;20036;-71
2023/09/02 10:10:33;;;;;;;11.48;6.70;;;;;;;;;;5101697;27;20027;-71
2023/09/02 10:12:59;;;;;;;9.52;6.80;;;;;;;;;;5100369;28;20204;-70
2023/09/02 10:15:27;;;;;;;8.50;6.00;;;;;;;;;;5085342;28;20036;-71
2023/09/02 10:18:04;;;;;;;9.52;6.55;;;;;;;;;;5105173;28;20028;-71
2023/09/02 10:20:38;;;;;;;9.90;7.10;;;;;;;;;;5111235;28;20042;-71
2023/09/02 10:23:08;;;;;;;9.90;6.68;;;;;;;;;;5084810;28;20881;-71
2023/09/02 10:25:54;;;;;;;10.30;6.28;;;;;;;;;;5102419;28;20038;-70
2023/09/02 10:28:40;;;;;;;9.90;5.70;;;;;;;;;;5092797;28;20414;-70
2023/09/02 10:31:12;;;;;;;9.18;5.97;;;;;;;;;;5108650;28;20039;-70
2023/09/02 10:33:56;;;;;;;8.52;6.18;;;;;;;;;;5108384;28;20109;-70
2023/09/02 10:36:23;;;;;;;7.13;5.13;;;;;;;;;;5088502;28;20019;-70
2023/09/02 10:38:53;;;;;;;9.25;5.72;;;;;;;;;;5098002;28;20023;-76
2023/09/02 10:41:25;;;;;;;7.20;5.00;;;;;;;;;;5106373;28;20020;-75
2023/09/02 10:43:52;;;;;;;6.88;5.57;;;;;;;;;;5107082;27;20020;-75
2023/09/02 10:46:21;;;;;;;6.43;5.28;;;;;;;;;;5087339;28;20027;-75
2023/09/02 10:48:48;;;;;;;7.70;5.25;;;;;;;;;;5068020;28;20032;-75
2023/09/02 10:51:15;;;;;;;7.90;4.82;;;;;;;;;;5101336;28;20048;-74
2023/09/02 10:53:51;;;;;;;8.00;4.95;;;;;;;;;;5085291;28;20040;-74
2023/09/02 10:56:34;;;;;;;7.53;4.80;;;;;;;;;;5105552;28;20028;-74
2023/09/02 10:59:01;;;;;;;6.75;5.05;;;;;;;;;;5104102;28;20039;-74
2023/09/02 11:01:41;;;;;;;7.55;4.97;;;;;;;;;;5106004;28;20387;-77
2023/09/02 11:04:08;;;;;;;5.65;4.55;;;;;;;;;;5111374;28;20558;-75
2023/09/02 11:06:34;;;;;;;6.85;5.22;;;;;;;;;;5102790;28;20031;-73
2023/09/02 11:09:00;;;;;;;6.03;5.18;;;;;;;;;;5102387;28;20034;-74
2023/09/02 11:11:46;;;;;;;5.95;4.65;;;;;;;;;;5102660;28;20035;-74
2023/09/02 11:14:12;;;;;;;7.72;4.68;;;;;;;;;;5108732;28;20034;-74
2023/09/02 11:16:40;;;;;;;6.32;5.30;;;;;;;;;;5088892;28;20518;-74
2023/09/02 11:19:11;;;;;;;5.47;4.60;;;;;;;;;;5087075;28;20035;-74
2023/09/02 11:21:46;;;;;;;8.05;5.82;;;;;;;;;;5108030;28;20019;-76
2023/09/02 11:24:22;;;;;;;8.90;5.47;;;;;;;;;;5110134;28;20127;-74
2023/09/02 11:26:59;;;;;;;5.80;5.07;;;;;;;;;;5085150;28;20110;-73
2023/09/02 11:29:28;;;;;;;5.57;4.40;;;;;;;;;;5098141;28;20036;-71
2023/09/02 11:31:57;;;;;;;5.88;4.50;;;;;;;;;;5101941;27;20028;-73
2023/09/02 11:34:27;;;;;;;6.32;4.20;;;;;;;;;;5102355;28;20032;-72
2023/09/02 11:36:54;;;;;;;4.78;4.15;;;;;;;;;;5108241;28;20862;-71
2023/09/02 11:39:27;;;;;;;6.50;4.65;;;;;;;;;;5104896;28;20135;-72
2023/09/02 11:42:09;;;;;;;5.30;4.28;;;;;;;;;;5090087;28;20034;-73
2023/09/02 11:44:51;;;;;;;5.28;4.60;;;;;;;;;;5101670;28;20027;-75
2023/09/02 11:47:17;;;;;;;6.05;4.35;;;;;;;;;;5100217;28;20020;-74
2023/09/02 11:49:47;;;;;;;6.50;4.80;;;;;;;;;;5101391;28;20043;-75
2023/09/02 11:52:22;;;;;;;6.15;4.65;;;;;;;;;;5088161;28;20016;-75
2023/09/02 11:54:51;;;;;;;6.63;4.63;;;;;;;;;;5103773;28;20568;-74
2023/09/02 11:57:21;;;;;;;6.22;4.20;;;;;;;;;;5106340;28;20036;-73
2023/09/02 11:59:47;;;;;;;5.95;4.00;;;;;;;;;;5107368;27;20070;-75
2023/09/02 12:02:15;;;;;;;6.18;3.88;;;;;;;;;;5090548;28;20483;-75
2023/09/02 12:04:41;;;;;;;5.10;3.88;;;;;;;;;;5104254;28;20035;-73
2023/09/02 12:07:11;;;;;;;5.95;3.83;;;;;;;;;;5102767;28;20042;-73
2023/09/02 12:09:38;;;;;;;4.70;4.13;;;;;;;;;;5102882;28;20392;-74
2023/09/02 12:12:05;;;;;;;5.25;4.00;;;;;;;;;;5085658;28;20430;-74
2023/09/02 12:14:40;;;;;;;5.63;4.18;;;;;;;;;;5080310;28;20194;-76
2023/09/02 12:17:07;;;;;;;4.97;3.92;;;;;;;;;;5102555;27;20209;-75
2023/09/02 12:19:34;;;;;;;4.85;3.92;;;;;;;;;;5103895;27;20024;-75
2023/09/02 12:22:01;;;;;;;6.10;5.07;;;;;;;;;;5099053;28;20024;-74
2023/09/02 12:24:29;;;;;;;5.45;3.97;;;;;;;;;;5094657;28;20479;-73
2023/09/02 12:26:55;;;;;;;4.25;3.63;;;;;;;;;;5101124;28;20016;-73
2023/09/02 12:29:22;;;;;;;4.32;3.72;;;;;;;;;;5079704;28;20055;-70
2023/09/02 12:31:58;;;;;;;6.07;4.10;;;;;;;;;;5091023;28;20023;-71
2023/09/02 12:34:25;;;;;;;5.95;3.92;;;;;;;;;;5099830;27;20054;-72
2023/09/02 12:36:51;;;;;;;5.25;4.10;;;;;;;;;;5101296;28;20027;-73
2023/09/02 12:39:30;;;;;;;6.78;3.85;;;;;;;;;;5096160;28;20027;-75
2023/09/02 12:42:00;;;;;;;4.45;3.40;;;;;;;;;;5116609;28;20072;-76
2023/09/02 12:44:26;;;;;;;3.75;3.00;;;;;;;;;;5114568;28;20020;-76
2023/09/02 12:46:53;;;;;;;3.47;3.17;;;;;;;;;;5093211;28;20030;-76
2023/09/02 12:49:21;;;;;;;3.72;2.92;;;;;;;;;;5091185;28;20055;-77
2023/09/02 12:51:47;;;;;;;5.38;2.80;;;;;;;;;;5115915;28;20031;-77
2023/09/02 12:54:14;;;;;;;3.80;2.80;;;;;;;;;;5097366;28;20536;-77
2023/09/02 12:56:41;;;;;;;3.42;2.80;;;;;;;;;;5095263;28;20039;-76
2023/09/02 12:59:07;;;;;;;5.00;3.35;;;;;;;;;;5114115;28;20367;-77
2023/09/02 13:01:36;;;;;;;5.85;3.75;;;;;;;;;;5111582;28;20385;-77
2023/09/02 13:04:03;;;;;;;3.78;3.40;;;;;;;;;;5109656;28;20482;-77
2023/09/02 13:06:31;;;;;;;4.53;3.63;;;;;;;;;;5107973;28;20084;-75
2023/09/02 13:08:58;;;;;;;5.90;4.03;;;;;;;;;;5108766;28;20030;-74
2023/09/02 13:11:27;;;;;;;4.07;3.17;;;;;;;;;;5110848;28;20513;-75
2023/09/02 13:13:54;;;;;;;3.75;3.05;;;;;;;;;;5107679;28;20463;-77
2023/09/02 13:16:20;;;;;;;3.67;2.63;;;;;;;;;;5104567;28;20055;-77
2023/09/02 13:18:46;;;;;;;3.65;3.05;;;;;;;;;;5114189;28;20043;-76
2023/09/02 13:21:13;;;;;;;2.95;2.60;;;;;;;;;;5112691;28;20031;-76
2023/09/02 13:23:39;;;;;;;3.30;2.75;;;;;;;;;;5111315;28;20039;-77
2023/09/02 13:26:10;;;;;;;3.10;2.60;;;;;;;;;;5110441;28;20023;-77
2023/09/02 13:28:37;;;;;;;2.95;2.45;;;;;;;;;;5098789;28;20816;-77
2023/09/02 13:31:03;;;;;;;3.05;2.72;;;;;;;;;;5108607;28;20032;-76
2023/09/02 13:33:30;;;;;;;3.28;2.53;;;;;;;;;;5109235;28;20131;-76
2023/09/02 13:35:59;;;;;;;3.22;2.35;;;;;;;;;;5106300;28;20075;-78
2023/09/02 13:38:25;;;;;;;3.65;2.55;;;;;;;;;;5112534;28;20027;-76
2023/09/02 13:40:59;;;;;;;4.00;3.00;;;;;;;;;;5103493;28;20035;-77
2023/09/02 13:43:26;;;;;;;3.53;2.50;;;;;;;;;;5089954;28;20111;-77
2023/09/02 13:45:52;;;;;;;3.70;2.70;;;;;;;;;;5106095;28;20035;-77
2023/09/02 13:48:19;;;;;;;3.70;2.58;;;;;;;;;;5107211;28;20130;-77
2023/09/02 13:50:50;;;;;;;2.85;2.33;;;;;;;;;;5106499;28;20444;-77
2023/09/02 13:53:18;;;;;;;4.05;2.40;;;;;;;;;;5101083;28;20148;-77
2023/09/02 13:55:45;;;;;;;3.25;2.60;;;;;;;;;;5106055;28;20024;-78
2023/09/02 13:58:15;;;;;;;3.80;2.33;;;;;;;;;;5110028;28;20027;-77
2023/09/02 14:00:42;;;;;;;3.63;2.45;;;;;;;;;;5097197;28;20684;-77
2023/09/02 14:03:17;;;;;;;2.58;2.33;;;;;;;;;;5105115;28;20028;-77
2023/09/02 14:05:46;;;;;;;4.55;2.80;;;;;;;;;;5097126;28;20030;-77
2023/09/02 14:08:17;;;;;;;2.83;2.30;;;;;;;;;;5105582;28;20023;-76
2023/09/02 14:10:43;;;;;;;3.50;2.30;;;;;;;;;;5104382;28;20032;-77
2023/09/02 14:13:10;;;;;;;3.85;2.90;;;;;;;;;;5108052;28;20016;-76
2023/09/02 14:15:36;;;;;;;4.05;2.88;;;;;;;;;;5108325;28;20052;-76
2023/09/02 14:18:03;;;;;;;4.25;2.65;;;;;;;;;;5093588;28;20031;-77
2023/09/02 14:20:29;;;;;;;3.35;2.25;;;;;;;;;;5109512;28;20031;-77
2023/09/02 14:22:55;;;;;;;2.95;2.20;;;;;;;;;;5108999;28;20032;-76
2023/09/02 14:25:23;;;;;;;3.45;2.30;;;;;;;;;;5108087;28;20026;-78
2023/09/02 14:27:49;;;;;;;2.78;2.45;;;;;;;;;;5088729;28;20073;-77
2023/09/02 14:30:16;;;;;;;3.78;2.55;;;;;;;;;;5108538;28;20729;-77